Time;durP1;ratioP1;P1;durP2;ratioP2;P2;SDS_P1;SDS_P2;PMS_P1;PMS_P2;Temp;Humidity;BMP_temperature;BMP_pressure;BME280_temperature;BME280_humidity;BME280_pressure;Samples;Min_cycle;Max_cycle;Signal;HPM_P1;HPM_P2
2022/11/17 00:01:19;;;;;;;2.17;1.53;;;4.70;99.90;4.50;99300.00;;;;4896846;28;92844;-64
2022/11/17 00:03:46;;;;;;;0.47;0.47;;;4.70;99.90;4.50;99305.00;;;;4897827;28;93069;-65
2022/11/17 00:06:12;;;;;;;1.33;1.00;;;4.70;99.90;4.50;99297.00;;;;4898549;28;94311;-65
2022/11/17 00:08:37;;;;;;;1.43;1.03;;;4.70;99.90;4.50;99308.00;;;;4898848;28;109664;-65
2022/11/17 00:11:04;;;;;;;0.83;0.83;;;4.60;99.90;4.50;99306.00;;;;4901272;28;93269;-64
2022/11/17 00:16:20;;;;;;;1.53;0.90;;;4.60;99.90;4.40;99300.00;;;;4895541;28;92813;-65
2022/11/17 00:21:31;;;;;;;1.27;1.17;;;4.60;99.90;4.40;99304.00;;;;4895402;28;92951;-65
2022/11/17 00:23:57;;;;;;;0.83;0.83;;;4.60;99.90;4.40;99315.00;;;;4893088;28;93471;-65
2022/11/17 00:26:29;;;;;;;1.47;1.10;;;4.60;99.90;4.40;99310.00;;;;4896735;28;92157;-64
2022/11/17 00:29:00;;;;;;;1.63;1.17;;;4.60;99.90;4.40;99309.00;;;;4895327;28;93085;-66
2022/11/17 00:34:17;;;;;;;1.43;0.97;;;4.60;99.90;4.40;99314.00;;;;4893327;28;93955;-65
2022/11/17 00:36:49;;;;;;;1.33;1.23;;;4.60;99.90;4.40;99315.00;;;;4898029;28;92907;-66
2022/11/17 00:39:18;;;;;;;2.47;0.97;;;4.60;99.90;4.40;99319.00;;;;4894912;28;93275;-65
2022/11/17 00:41:43;;;;;;;0.90;0.90;;;4.60;99.90;4.40;99311.00;;;;4898513;28;111084;-65
2022/11/17 00:44:09;;;;;;;1.13;1.03;;;4.50;99.90;4.40;99309.00;;;;4895859;28;122863;-66
2022/11/17 00:46:36;;;;;;;1.63;1.03;;;4.60;99.90;4.40;99304.00;;;;4904110;28;101236;-64
2022/11/17 00:49:04;;;;;;;2.20;1.50;;;4.60;99.90;4.40;99318.00;;;;4901390;28;93603;-64
2022/11/17 00:51:30;;;;;;;1.93;1.30;;;4.60;99.90;4.40;99313.00;;;;4902923;28;93331;-65
2022/11/17 00:53:55;;;;;;;1.10;0.80;;;4.60;99.90;4.40;99298.00;;;;4899952;28;94626;-65
2022/11/17 00:56:22;;;;;;;1.10;1.00;;;4.60;99.90;4.40;99298.00;;;;4903528;28;92932;-64
2022/11/17 00:58:48;;;;;;;2.63;1.67;;;4.60;99.90;4.40;99299.00;;;;4900924;28;94051;-63
2022/11/17 01:01:13;;;;;;;3.40;1.23;;;4.60;99.90;4.40;99298.00;;;;4898405;28;120538;-66
2022/11/17 01:03:39;;;;;;;1.87;1.20;;;4.60;99.90;4.40;99292.00;;;;4905116;28;120210;-65
2022/11/17 01:06:12;;;;;;;1.57;1.43;;;4.50;99.90;4.30;99282.00;;;;4900705;28;109659;-65
2022/11/17 01:08:38;;;;;;;2.70;1.30;;;4.50;99.90;4.30;99298.00;;;;4901583;28;93098;-66
2022/11/17 01:11:22;;;;;;;2.20;1.10;;;4.50;99.90;4.20;99285.00;;;;4901971;28;94198;-65
2022/11/17 01:13:48;;;;;;;1.27;1.00;;;4.50;99.90;4.20;99280.00;;;;4900425;28;100420;-64
2022/11/17 01:16:17;;;;;;;2.70;1.20;;;4.40;99.90;4.20;99280.00;;;;4901063;28;109034;-65
2022/11/17 01:18:46;;;;;;;1.20;0.80;;;4.40;99.90;4.20;99273.00;;;;4899145;28;92975;-66
2022/11/17 01:21:24;;;;;;;1.70;1.30;;;4.30;99.90;4.10;99274.00;;;;4901623;28;94274;-65
2022/11/17 01:23:53;;;;;;;1.60;1.50;;;4.40;99.90;4.10;99270.00;;;;4897500;28;98321;-65
2022/11/17 01:26:23;;;;;;;1.53;1.40;;;4.30;99.90;4.10;99262.00;;;;4899062;28;92989;-65
2022/11/17 01:28:49;;;;;;;2.70;1.40;;;4.30;99.90;4.10;99261.00;;;;4898069;28;102053;-63
2022/11/17 01:31:32;;;;;;;4.53;2.43;;;4.30;99.90;4.10;99266.00;;;;4897127;28;93900;-65
2022/11/17 01:33:59;;;;;;;6.73;1.90;;;4.40;99.90;4.10;99264.00;;;;4898254;28;117196;-64
2022/11/17 01:39:25;;;;;;;1.93;1.53;;;4.30;99.90;4.10;99260.00;;;;4891706;28;93076;-65
2022/11/17 01:41:52;;;;;;;1.90;1.50;;;4.30;99.90;4.10;99260.00;;;;4896674;28;92966;-65
2022/11/17 01:44:54;;;;;;;3.33;2.00;;;4.30;99.90;4.10;99256.00;;;;4896126;28;116084;-65
2022/11/17 01:47:28;;;;;;;3.10;2.20;;;4.30;99.90;4.00;99251.00;;;;4895206;28;93192;-65
2022/11/17 01:50:01;;;;;;;1.83;1.53;;;4.30;99.90;4.10;99258.00;;;;4899935;28;93765;-64
2022/11/17 01:52:29;;;;;;;2.97;2.13;;;4.50;99.90;4.10;99250.00;;;;4908953;28;117548;-64
2022/11/17 01:54:56;;;;;;;3.13;2.17;;;4.20;99.90;4.00;99263.00;;;;4913447;28;122829;-65
2022/11/17 01:57:36;;;;;;;3.57;2.80;;;4.20;99.90;4.00;99257.00;;;;4897925;28;93831;-65
2022/11/17 02:00:07;;;;;;;5.03;2.87;;;4.20;99.90;4.00;99256.00;;;;4892022;28;98846;-65
2022/11/17 02:02:34;;;;;;;2.30;1.83;;;4.20;99.90;4.00;99262.00;;;;4894952;28;115596;-65
2022/11/17 02:05:37;;;;;;;3.17;2.17;;;4.20;99.90;3.90;99265.00;;;;4899620;28;112491;-65
2022/11/17 02:08:05;;;;;;;4.13;2.80;;;4.20;99.90;4.00;99269.00;;;;4900747;28;92278;-64
2022/11/17 02:10:33;;;;;;;3.97;2.30;;;4.20;99.90;4.00;99263.00;;;;4897471;28;93146;-65
2022/11/17 02:13:00;;;;;;;2.47;2.07;;;4.20;99.90;4.00;99254.00;;;;4896964;28;113822;-65
2022/11/17 02:15:28;;;;;;;2.97;2.67;;;4.10;99.90;3.90;99246.00;;;;4899770;28;111002;-65
2022/11/17 02:17:54;;;;;;;3.23;2.20;;;4.10;99.90;3.90;99248.00;;;;4897651;28;93275;-64
2022/11/17 02:20:48;;;;;;;2.23;1.80;;;4.10;99.90;3.90;99245.00;;;;4899946;28;93067;-64
2022/11/17 02:24:21;;;;;;;2.83;2.43;;;4.10;99.90;3.90;99255.00;;;;4894790;28;93575;-64
2022/11/17 02:27:30;;;;;;;4.97;2.53;;;4.10;99.90;3.90;99244.00;;;;4873808;28;94666;-65
2022/11/17 02:30:03;;;;;;;2.90;2.50;;;4.10;99.90;3.90;99233.00;;;;4900128;28;104804;-64
2022/11/17 02:32:57;;;;;;;3.87;3.30;;;4.10;99.90;3.90;99226.00;;;;4895138;28;93259;-64
2022/11/17 02:35:51;;;;;;;3.00;2.70;;;4.10;99.90;3.90;99235.00;;;;4897387;28;92451;-65
2022/11/17 02:38:44;;;;;;;5.70;3.43;;;4.10;99.90;3.90;99225.00;;;;4908632;28;94701;-66
2022/11/17 02:41:21;;;;;;;3.40;1.73;;;4.10;99.90;3.90;99228.00;;;;4898443;28;93021;-65
2022/11/17 02:44:14;;;;;;;4.17;2.63;;;4.10;99.90;3.80;99228.00;;;;4912450;28;93945;-64
2022/11/17 02:46:49;;;;;;;2.47;2.23;;;4.10;99.90;3.80;99223.00;;;;4894834;28;116607;-66
2022/11/17 02:49:24;;;;;;;3.37;2.77;;;4.10;99.90;3.80;99217.00;;;;4914696;28;116434;-65
2022/11/17 02:51:54;;;;;;;5.33;2.90;;;4.00;99.90;3.80;99227.00;;;;4896306;28;104913;-66
2022/11/17 02:54:24;;;;;;;4.50;3.63;;;4.10;99.90;3.80;99230.00;;;;4899092;28;93672;-66
2022/11/17 02:56:49;;;;;;;3.77;2.60;;;4.00;99.90;3.80;99224.00;;;;4896181;28;94264;-66
2022/11/17 02:59:22;;;;;;;3.87;2.90;;;4.10;99.90;3.80;99228.00;;;;4898787;28;121365;-65
2022/11/17 03:02:16;;;;;;;2.90;2.70;;;4.00;99.90;3.80;99234.00;;;;4896183;28;92092;-65
2022/11/17 03:05:07;;;;;;;3.63;2.87;;;4.00;99.90;3.80;99230.00;;;;4899182;28;93124;-66
2022/11/17 03:08:07;;;;;;;5.50;3.20;;;4.00;99.90;3.80;99220.00;;;;4899904;28;92837;-65
2022/11/17 03:10:48;;;;;;;5.13;3.07;;;4.00;99.90;3.80;99211.00;;;;4892748;28;93898;-66
2022/11/17 03:13:40;;;;;;;4.43;2.50;;;4.00;99.90;3.80;99215.00;;;;4894612;28;93181;-65
2022/11/17 03:16:29;;;;;;;4.90;3.20;;;4.00;99.90;3.80;99219.00;;;;4890631;28;93135;-66
2022/11/17 03:19:28;;;;;;;7.53;4.43;;;4.50;99.90;3.80;99226.00;;;;4896096;28;93334;-66
2022/11/17 03:22:05;;;;;;;6.03;4.13;;;4.00;99.90;3.80;99228.00;;;;4894926;28;92792;-65
2022/11/17 03:24:36;;;;;;;4.00;3.63;;;4.00;99.90;3.80;99220.00;;;;4892863;28;105039;-65
2022/11/17 03:27:17;;;;;;;4.40;3.03;;;4.00;99.90;3.80;99228.00;;;;4897327;28;99087;-64
2022/11/17 03:29:48;;;;;;;6.40;4.10;;;4.00;99.90;3.80;99232.00;;;;4897218;28;92121;-66
2022/11/17 03:32:15;;;;;;;7.73;4.13;;;4.00;99.90;3.90;99216.00;;;;4895506;28;109926;-65
2022/11/17 03:34:48;;;;;;;6.27;4.27;;;4.10;99.90;3.80;99222.00;;;;4896833;28;110536;-65
2022/11/17 03:37:18;;;;;;;4.90;3.73;;;4.10;99.90;3.80;99226.00;;;;4892906;28;99760;-66
2022/11/17 03:39:51;;;;;;;5.13;4.20;;;4.00;99.90;3.80;99224.00;;;;4894917;28;95770;-65
2022/11/17 03:42:25;;;;;;;5.93;3.97;;;4.10;99.90;3.80;99227.00;;;;4893230;28;92985;-65
2022/11/17 03:44:56;;;;;;;6.97;3.43;;;4.00;99.90;3.80;99211.00;;;;4913130;28;92858;-66
2022/11/17 03:47:25;;;;;;;4.57;4.17;;;4.00;99.90;3.80;99223.00;;;;4894605;28;93274;-65
2022/11/17 03:50:03;;;;;;;7.47;4.33;;;4.70;99.90;3.80;99210.00;;;;4896241;28;100894;-65
2022/11/17 03:52:29;;;;;;;8.17;4.70;;;4.00;99.90;3.80;99216.00;;;;4894470;28;102015;-65
2022/11/17 03:54:55;;;;;;;6.93;4.27;;;4.00;99.90;3.80;99214.00;;;;4894096;28;109656;-66
2022/11/17 03:57:54;;;;;;;3.90;3.20;;;4.00;99.90;3.80;99213.00;;;;4894793;28;108941;-65
2022/11/17 04:00:19;;;;;;;5.40;4.47;;;4.00;99.90;3.80;99222.00;;;;4889620;28;116042;-66
2022/11/17 04:02:48;;;;;;;7.57;4.53;;;4.80;99.90;3.80;99209.00;;;;4893440;28;115316;-66
2022/11/17 04:05:16;;;;;;;3.40;3.10;;;4.00;99.90;3.80;99209.00;;;;4893523;28;92967;-66
2022/11/17 04:07:44;;;;;;;3.63;3.27;;;4.00;99.90;3.80;99203.00;;;;4894806;28;94063;-64
2022/11/17 04:10:14;;;;;;;9.00;4.77;;;4.00;99.90;3.80;99213.00;;;;4896872;28;93421;-64
2022/11/17 04:15:55;;;;;;;6.47;4.20;;;4.00;99.90;3.80;99213.00;;;;4892716;28;93014;-65
2022/11/17 04:18:17;;;;;;;6.70;3.87;;;4.00;99.90;3.80;99216.00;;;;4897716;28;92828;-64
2022/11/17 04:20:43;;;;;;;6.33;4.27;;;4.00;99.90;3.80;99226.00;;;;4896034;28;117072;-63
2022/11/17 04:23:13;;;;;;;4.10;3.13;;;4.00;99.90;3.80;99219.00;;;;4899132;28;110850;-65
2022/11/17 04:28:47;;;;;;;5.67;3.53;;;4.00;99.90;3.80;99205.00;;;;4896848;28;93756;-64
2022/11/17 04:31:19;;;;;;;5.87;3.23;;;4.00;99.90;3.80;99205.00;;;;4895138;28;93095;-66
2022/11/17 04:34:00;;;;;;;5.33;3.57;;;4.50;99.90;3.80;99202.00;;;;4898707;28;92971;-63
2022/11/17 04:36:29;;;;;;;4.33;3.27;;;4.00;99.90;3.80;99208.00;;;;4901543;28;92909;-64
2022/11/17 04:38:57;;;;;;;4.90;3.87;;;3.90;99.90;3.80;99202.00;;;;4902363;28;92985;-63
2022/11/17 04:44:13;;;;;;;7.00;3.50;;;3.90;99.90;3.80;99207.00;;;;4897752;28;93008;-63
2022/11/17 04:46:40;;;;;;;5.07;3.33;;;3.90;99.90;3.70;99202.00;;;;4904670;28;92300;-64
2022/11/17 04:49:07;;;;;;;3.57;2.83;;;3.90;99.90;3.70;99193.00;;;;4900027;28;93288;-63
2022/11/17 04:51:34;;;;;;;6.50;3.60;;;3.90;99.90;3.80;99193.00;;;;4898212;28;109853;-64
2022/11/17 04:54:01;;;;;;;5.87;3.70;;;3.80;99.90;3.80;99198.00;;;;4901970;28;94115;-63
2022/11/17 04:56:28;;;;;;;3.93;3.10;;;4.00;99.90;3.80;99188.00;;;;4897903;28;93018;-64
2022/11/17 04:58:54;;;;;;;4.60;2.80;;;3.90;99.90;3.70;99181.00;;;;4900285;28;92883;-64
2022/11/17 05:01:21;;;;;;;4.30;2.63;;;3.90;99.90;3.70;99175.00;;;;4899170;28;99886;-64
2022/11/17 05:04:02;;;;;;;4.87;4.17;;;3.90;99.90;3.70;99177.00;;;;4903134;28;93908;-64
2022/11/17 05:06:35;;;;;;;4.23;2.97;;;3.90;99.90;3.70;99178.00;;;;4897201;28;93150;-66
2022/11/17 05:09:09;;;;;;;4.50;4.03;;;3.90;99.90;3.60;99178.00;;;;4900013;28;93355;-65
2022/11/17 05:14:22;;;;;;;6.67;3.30;;;3.90;99.90;3.60;99181.00;;;;4899742;28;92846;-64
2022/11/17 05:17:08;;;;;;;4.20;3.20;;;3.80;99.90;3.60;99173.00;;;;4899692;28;101878;-64
2022/11/17 05:19:43;;;;;;;5.07;3.47;;;3.80;99.90;3.60;99175.00;;;;4900477;28;93989;-65
2022/11/17 05:24:56;;;;;;;3.13;2.83;;;3.90;99.90;3.70;99172.00;;;;4894289;28;92915;-64
2022/11/17 05:27:23;;;;;;;3.67;3.23;;;3.90;99.90;3.70;99170.00;;;;4892202;28;93647;-65
2022/11/17 05:29:49;;;;;;;3.67;3.33;;;3.80;99.90;3.60;99174.00;;;;4891616;28;92956;-66
2022/11/17 05:32:15;;;;;;;3.10;2.53;;;3.90;99.90;3.70;99174.00;;;;4894038;28;93356;-66
2022/11/17 05:34:40;;;;;;;4.67;3.87;;;3.80;99.90;3.70;99162.00;;;;4893847;28;105990;-64
2022/11/17 05:37:06;;;;;;;3.60;2.97;;;3.80;99.90;3.70;99165.00;;;;4897434;28;108670;-66
2022/11/17 05:39:32;;;;;;;5.23;4.30;;;3.90;99.90;3.70;99162.00;;;;4894406;28;108784;-66
2022/11/17 05:41:57;;;;;;;4.30;2.97;;;3.90;99.90;3.70;99165.00;;;;4896092;28;122502;-66
2022/11/17 05:44:23;;;;;;;4.40;3.37;;;3.90;99.90;3.70;99166.00;;;;4894535;28;121403;-65
2022/11/17 05:46:48;;;;;;;6.30;3.83;;;3.90;99.90;3.70;99168.00;;;;4893750;28;109914;-67
2022/11/17 05:49:14;;;;;;;3.90;2.57;;;3.90;99.90;3.70;99163.00;;;;4890483;28;108145;-64
2022/11/17 05:51:40;;;;;;;3.60;2.37;;;3.90;99.90;3.70;99165.00;;;;4894324;28;117413;-64
2022/11/17 05:54:05;;;;;;;4.03;3.17;;;3.90;99.90;3.70;99151.00;;;;4893315;28;122835;-64
2022/11/17 05:56:40;;;;;;;4.27;2.70;;;3.90;99.90;3.70;99147.00;;;;4891798;28;97177;-65
2022/11/17 05:59:26;;;;;;;6.37;3.80;;;3.90;99.90;3.70;99148.00;;;;4894863;28;92996;-64
2022/11/17 06:02:17;;;;;;;4.53;3.47;;;3.90;99.90;3.70;99153.00;;;;4891654;28;92553;-65
2022/11/17 06:04:42;;;;;;;5.77;3.67;;;3.90;99.90;3.70;99163.00;;;;4896611;28;93597;-66
2022/11/17 06:07:09;;;;;;;3.37;2.27;;;3.90;99.90;3.70;99166.00;;;;4894242;28;102843;-65
2022/11/17 06:09:39;;;;;;;3.37;2.57;;;3.80;99.90;3.70;99160.00;;;;4893701;28;94019;-65
2022/11/17 06:12:05;;;;;;;5.40;3.53;;;3.90;99.90;3.70;99156.00;;;;4891515;28;93589;-65
2022/11/17 06:14:30;;;;;;;5.37;3.23;;;3.90;99.90;3.70;99159.00;;;;4898434;28;92981;-65
2022/11/17 06:17:10;;;;;;;4.57;3.77;;;3.90;99.90;3.70;99161.00;;;;4895954;28;109860;-64
2022/11/17 06:19:43;;;;;;;4.27;3.57;;;3.90;99.90;3.80;99170.00;;;;4897983;28;100353;-64
2022/11/17 06:22:09;;;;;;;5.20;3.73;;;3.90;99.90;3.80;99171.00;;;;4894975;28;101157;-65
2022/11/17 06:24:36;;;;;;;4.33;2.80;;;4.00;99.90;3.80;99156.00;;;;4898644;28;121729;-65
2022/11/17 06:27:03;;;;;;;3.93;2.60;;;4.00;99.90;3.80;99161.00;;;;4898254;28;92073;-65
2022/11/17 06:29:29;;;;;;;3.70;3.00;;;4.00;99.90;3.80;99160.00;;;;4900696;28;99555;-65
2022/11/17 06:31:57;;;;;;;4.10;3.40;;;4.00;99.90;3.80;99156.00;;;;4895014;28;93993;-65
2022/11/17 06:34:24;;;;;;;3.27;2.20;;;4.00;99.90;3.80;99165.00;;;;4896946;28;93908;-64
2022/11/17 06:36:52;;;;;;;4.33;2.50;;;4.00;99.90;3.90;99156.00;;;;4899950;28;93317;-66
2022/11/17 06:39:18;;;;;;;5.23;3.73;;;4.00;99.90;3.90;99145.00;;;;4898815;28;93051;-64
2022/11/17 06:41:43;;;;;;;2.57;1.63;;;4.10;99.90;3.90;99143.00;;;;4894177;28;121236;-66
2022/11/17 06:44:09;;;;;;;3.67;2.67;;;4.00;99.90;3.90;99148.00;;;;4895604;28;93059;-65
2022/11/17 06:46:37;;;;;;;5.10;3.40;;;4.00;99.90;3.90;99150.00;;;;4898783;28;111157;-65
2022/11/17 06:49:06;;;;;;;4.67;2.87;;;4.00;99.90;3.90;99146.00;;;;4902207;28;92943;-65
2022/11/17 06:51:33;;;;;;;5.03;2.63;;;4.10;99.90;3.90;99149.00;;;;4897829;28;93546;-65
2022/11/17 06:53:59;;;;;;;3.80;2.60;;;4.10;99.90;3.90;99138.00;;;;4900776;28;93099;-65
2022/11/17 06:56:24;;;;;;;3.90;2.67;;;4.10;99.90;4.00;99150.00;;;;4901259;28;95155;-65
2022/11/17 06:58:50;;;;;;;3.80;2.07;;;4.80;99.90;4.00;99146.00;;;;4901060;28;93920;-65
2022/11/17 07:01:16;;;;;;;3.23;2.53;;;4.10;99.90;4.00;99159.00;;;;4895940;28;121111;-65
2022/11/17 07:03:42;;;;;;;3.37;2.20;;;4.20;99.90;4.00;99157.00;;;;4903158;28;109553;-65
2022/11/17 07:06:09;;;;;;;3.07;2.27;;;4.10;99.90;4.10;99171.00;;;;4900025;28;92963;-66
2022/11/17 07:08:36;;;;;;;2.87;2.33;;;4.20;99.90;4.00;99176.00;;;;4902005;28;92860;-64
2022/11/17 07:11:12;;;;;;;3.73;2.40;;;4.20;99.90;4.00;99157.00;;;;4897725;28;93356;-65
2022/11/17 07:13:38;;;;;;;2.10;1.90;;;4.20;99.90;4.10;99147.00;;;;4904406;28;94122;-66
2022/11/17 07:16:11;;;;;;;4.13;2.30;;;4.30;99.90;4.10;99157.00;;;;4898409;28;94186;-66
2022/11/17 07:18:40;;;;;;;4.13;2.50;;;4.30;99.90;4.10;99148.00;;;;4892467;28;93923;-65
2022/11/17 07:21:09;;;;;;;2.67;2.47;;;4.30;99.90;4.10;99138.00;;;;4896428;28;93535;-64
2022/11/17 07:23:36;;;;;;;5.43;2.77;;;4.30;99.90;4.10;99134.00;;;;4894930;28;93808;-64
2022/11/17 07:26:03;;;;;;;2.30;1.93;;;4.30;99.90;4.10;99136.00;;;;4895042;28;93303;-64
2022/11/17 07:28:29;;;;;;;2.27;1.77;;;4.30;99.90;4.20;99132.00;;;;4895905;28;92705;-65
2022/11/17 07:30:55;;;;;;;3.50;2.10;;;4.30;99.90;4.20;99135.00;;;;4898456;28;119507;-66
2022/11/17 07:33:21;;;;;;;2.40;1.90;;;4.40;99.90;4.30;99123.00;;;;4897396;28;93732;-65
2022/11/17 07:35:47;;;;;;;2.87;2.27;;;4.40;99.90;4.30;99130.00;;;;4898296;28;92685;-63
2022/11/17 07:38:13;;;;;;;3.73;2.17;;;4.40;99.90;4.30;99140.00;;;;4897896;28;93019;-64
2022/11/17 07:40:39;;;;;;;2.10;1.77;;;4.50;99.90;4.30;99132.00;;;;4897121;28;93019;-63
2022/11/17 07:43:05;;;;;;;3.10;2.20;;;4.40;99.90;4.30;99136.00;;;;4895666;28;92929;-64
2022/11/17 07:45:31;;;;;;;4.33;2.17;;;4.50;99.90;4.40;99136.00;;;;4895795;28;92995;-63
2022/11/17 07:48:00;;;;;;;3.53;2.13;;;4.50;99.90;4.40;99124.00;;;;4897131;28;95136;-61
2022/11/17 07:50:26;;;;;;;2.00;1.30;;;4.60;99.90;4.40;99118.00;;;;4898344;28;94074;-62
2022/11/17 07:52:54;;;;;;;1.30;1.20;;;4.60;99.90;4.40;99123.00;;;;4896090;28;93376;-62
2022/11/17 07:55:22;;;;;;;2.80;1.57;;;4.60;99.90;4.50;99113.00;;;;4899432;28;93035;-60
2022/11/17 07:57:57;;;;;;;2.97;1.70;;;4.60;99.90;4.40;99113.00;;;;4902252;28;92963;-61
2022/11/17 08:00:25;;;;;;;2.03;1.67;;;4.60;99.90;4.40;99108.00;;;;4902470;28;93192;-61
2022/11/17 08:02:51;;;;;;;2.60;1.80;;;4.60;99.90;4.50;99102.00;;;;4900397;28;92988;-61
2022/11/17 08:05:17;;;;;;;1.83;1.60;;;4.60;99.90;4.40;99116.00;;;;4899218;28;92166;-61
2022/11/17 08:07:44;;;;;;;2.37;1.63;;;4.70;99.90;4.50;99120.00;;;;4906072;28;92613;-60
2022/11/17 08:10:12;;;;;;;1.60;1.17;;;4.70;99.90;4.50;99113.00;;;;4907235;28;94273;-59
2022/11/17 08:12:37;;;;;;;2.60;1.63;;;4.70;99.90;4.50;99117.00;;;;4899049;28;93685;-61
2022/11/17 08:15:04;;;;;;;1.03;1.00;;;4.70;99.90;4.60;99125.00;;;;4899901;28;108758;-59
2022/11/17 08:17:30;;;;;;;2.30;1.70;;;4.70;99.90;4.60;99115.00;;;;4907221;28;98032;-61
2022/11/17 08:19:56;;;;;;;2.07;1.00;;;4.70;99.90;4.60;99115.00;;;;4903437;28;93675;-59
2022/11/17 08:22:22;;;;;;;1.53;1.07;;;4.80;99.90;4.60;99111.00;;;;4898298;28;121493;-60
2022/11/17 08:24:48;;;;;;;3.60;1.73;;;4.80;99.90;4.60;99109.00;;;;4901035;28;99099;-60
2022/11/17 08:27:13;;;;;;;1.47;1.30;;;4.80;99.90;4.70;99111.00;;;;4903689;28;109401;-61
2022/11/17 08:29:39;;;;;;;2.20;1.73;;;4.80;99.90;4.70;99126.00;;;;4901050;28;112018;-62
2022/11/17 08:32:05;;;;;;;2.73;1.37;;;4.90;99.90;4.70;99124.00;;;;4900735;28;121758;-62
2022/11/17 08:34:30;;;;;;;1.40;1.00;;;4.90;99.90;4.80;99129.00;;;;4899574;28;110679;-61
2022/11/17 08:36:56;;;;;;;2.33;1.87;;;4.90;99.90;4.80;99122.00;;;;4897331;28;107652;-62
2022/11/17 08:39:21;;;;;;;1.37;1.20;;;4.90;99.90;4.80;99117.00;;;;4903516;28;122155;-60
2022/11/17 08:41:47;;;;;;;0.93;0.93;;;5.00;99.90;4.80;99112.00;;;;4894764;28;121825;-63
2022/11/17 08:44:13;;;;;;;2.77;1.60;;;5.00;99.90;4.80;99124.00;;;;4898451;28;109624;-62
2022/11/17 08:46:38;;;;;;;1.23;1.13;;;5.00;99.90;4.80;99130.00;;;;4899744;28;108896;-62
2022/11/17 08:49:04;;;;;;;1.23;1.07;;;5.00;99.90;4.80;99130.00;;;;4898736;28;123382;-61
2022/11/17 08:51:30;;;;;;;1.33;1.20;;;5.00;99.90;4.90;99122.00;;;;4899499;28;122275;-61
2022/11/17 08:53:57;;;;;;;0.70;0.50;;;5.00;99.90;4.90;99132.00;;;;4901024;28;109417;-63
2022/11/17 08:56:23;;;;;;;3.07;1.13;;;5.00;99.90;4.90;99135.00;;;;4900448;28;108005;-64
2022/11/17 08:58:49;;;;;;;1.37;1.10;;;5.10;99.90;4.90;99130.00;;;;4896588;28;93979;-61
2022/11/17 09:01:15;;;;;;;1.13;1.03;;;5.10;99.90;4.90;99126.00;;;;4897923;28;93874;-62
2022/11/17 09:03:43;;;;;;;1.30;0.93;;;5.10;99.90;5.00;99133.00;;;;4902591;28;92917;-61
2022/11/17 09:06:10;;;;;;;1.97;1.73;;;5.10;99.90;4.90;99125.00;;;;4901855;28;92823;-62
2022/11/17 09:08:35;;;;;;;1.93;1.20;;;5.10;99.90;5.00;99140.00;;;;4901757;28;122270;-60
2022/11/17 09:11:07;;;;;;;1.00;0.90;;;5.20;99.90;5.00;99146.00;;;;4902435;28;121569;-62
2022/11/17 09:13:34;;;;;;;1.20;1.10;;;5.10;99.90;5.10;99145.00;;;;4902704;28;93001;-63
2022/11/17 09:16:06;;;;;;;1.47;1.37;;;5.20;99.90;5.00;99135.00;;;;4898386;28;93071;-63
2022/11/17 09:18:33;;;;;;;0.80;0.73;;;5.20;99.90;5.10;99147.00;;;;4900368;28;92453;-62
2022/11/17 09:21:00;;;;;;;0.83;0.80;;;5.30;99.90;5.10;99152.00;;;;4899843;28;93053;-62
2022/11/17 09:23:27;;;;;;;2.83;1.07;;;5.20;99.90;5.10;99143.00;;;;4903319;28;92792;-63
2022/11/17 09:25:53;;;;;;;3.47;1.00;;;5.30;99.90;5.10;99131.00;;;;4901903;28;93770;-61
2022/11/17 09:28:19;;;;;;;0.73;0.73;;;5.20;99.90;5.10;99131.00;;;;4899089;28;123359;-63
2022/11/17 09:30:44;;;;;;;1.53;0.77;;;5.50;99.90;5.20;99144.00;;;;4896160;28;122342;-63
2022/11/17 09:33:10;;;;;;;0.70;0.70;;;5.30;99.90;5.20;99134.00;;;;4904038;28;109873;-64
2022/11/17 09:35:36;;;;;;;0.93;0.70;;;5.40;99.90;5.20;99128.00;;;;4901065;28;108164;-65
2022/11/17 09:38:01;;;;;;;1.90;0.90;;;5.30;99.90;5.20;99120.00;;;;4896854;28;121701;-63
2022/11/17 09:40:28;;;;;;;1.73;1.13;;;5.40;99.90;5.30;99125.00;;;;4903391;28;93084;-63
2022/11/17 09:42:53;;;;;;;0.50;0.50;;;5.40;99.90;5.30;99115.00;;;;4906751;28;92096;-65
2022/11/17 09:45:22;;;;;;;0.47;0.47;;;5.40;99.90;5.30;99124.00;;;;4901426;28;108570;-64
2022/11/17 09:47:53;;;;;;;2.30;0.70;;;5.50;99.90;5.30;99114.00;;;;4896210;28;93941;-64
2022/11/17 09:50:35;;;;;;;1.07;0.97;;;5.40;99.90;5.30;99121.00;;;;4896244;28;116277;-64
2022/11/17 09:53:27;;;;;;;1.13;0.97;;;5.50;99.90;5.30;99117.00;;;;4913867;28;92833;-65
2022/11/17 09:55:59;;;;;;;1.57;1.07;;;5.50;99.90;5.40;99130.00;;;;4896003;28;104044;-64
2022/11/17 09:58:54;;;;;;;0.70;0.70;;;5.50;99.90;5.40;99109.00;;;;4898006;28;115209;-64
2022/11/17 10:01:21;;;;;;;1.43;1.10;;;5.60;99.90;5.40;99121.00;;;;4896967;28;92957;-65
2022/11/17 10:03:50;;;;;;;0.90;0.60;;;5.50;99.90;5.50;99125.00;;;;4899160;28;92762;-64
2022/11/17 10:06:20;;;;;;;0.53;0.50;;;5.60;99.90;5.50;99122.00;;;;4893299;28;93141;-64
2022/11/17 10:09:12;;;;;;;0.70;0.70;;;5.60;99.90;5.60;99114.00;;;;4901812;28;91974;-65
2022/11/17 10:11:42;;;;;;;1.10;1.00;;;5.70;99.90;5.60;99122.00;;;;4899759;28;92946;-65
2022/11/17 10:14:10;;;;;;;1.50;0.93;;;5.70;99.90;5.60;99111.00;;;;4898181;28;101932;-65
2022/11/17 10:16:40;;;;;;;1.37;0.60;;;5.80;99.90;5.60;99110.00;;;;4895447;28;93886;-64
2022/11/17 10:19:17;;;;;;;0.73;0.73;;;5.80;99.90;5.70;99112.00;;;;4892952;28;111026;-65
2022/11/17 10:21:46;;;;;;;1.63;1.37;;;5.80;99.90;5.80;99109.00;;;;4899056;28;92800;-64
2022/11/17 10:24:53;;;;;;;1.90;1.13;;;5.80;99.90;5.70;99102.00;;;;4896354;28;105063;-64
2022/11/17 10:27:22;;;;;;;1.50;1.00;;;5.90;99.90;5.80;99107.00;;;;4898777;28;92874;-65
2022/11/17 10:30:13;;;;;;;0.70;0.70;;;5.90;99.90;5.80;99099.00;;;;4897947;28;94061;-64
2022/11/17 10:32:53;;;;;;;3.77;1.40;;;6.00;99.90;5.80;99098.00;;;;4892325;28;93366;-64
2022/11/17 10:35:23;;;;;;;1.33;0.87;;;5.90;99.90;5.80;99095.00;;;;4894686;28;92180;-65
2022/11/17 10:37:56;;;;;;;0.70;0.67;;;5.90;99.90;5.70;99095.00;;;;4894973;28;92980;-65
2022/11/17 10:40:26;;;;;;;1.13;0.93;;;5.90;99.90;5.80;99098.00;;;;4891604;28;99937;-64
2022/11/17 10:43:12;;;;;;;5.43;1.50;;;5.90;99.90;5.70;99100.00;;;;4894302;28;94068;-65
2022/11/17 10:46:01;;;;;;;0.80;0.80;;;5.90;99.90;5.80;99093.00;;;;4895281;28;92827;-65
2022/11/17 10:48:32;;;;;;;1.37;1.23;;;5.90;99.90;5.80;99091.00;;;;4896630;28;92866;-66
2022/11/17 10:51:01;;;;;;;3.17;0.87;;;5.90;99.90;5.80;99093.00;;;;4894070;28;94461;-65
2022/11/17 10:53:35;;;;;;;0.67;0.67;;;5.90;99.90;5.80;99083.00;;;;4897084;28;94403;-65
2022/11/17 10:56:21;;;;;;;0.73;0.73;;;5.90;99.90;5.80;99084.00;;;;4906185;28;92929;-66
2022/11/17 10:59:00;;;;;;;1.00;0.80;;;6.50;99.90;5.90;99075.00;;;;4891304;28;96993;-65
2022/11/17 11:01:34;;;;;;;0.77;0.77;;;6.00;99.90;5.90;99086.00;;;;4892347;28;95737;-65
2022/11/17 11:04:02;;;;;;;0.80;0.80;;;6.00;99.90;5.90;99079.00;;;;4897740;28;93075;-65
2022/11/17 11:06:30;;;;;;;2.03;0.80;;;6.00;99.90;5.90;99084.00;;;;4896723;28;93049;-65
2022/11/17 11:09:02;;;;;;;1.33;1.23;;;6.00;99.90;5.90;99084.00;;;;4909564;28;93831;-64
2022/11/17 11:11:35;;;;;;;1.53;0.93;;;6.00;99.90;5.90;99083.00;;;;4891972;28;93869;-64
2022/11/17 11:14:37;;;;;;;1.10;0.93;;;6.00;99.90;5.90;99068.00;;;;4898039;28;96115;-65
2022/11/17 11:17:15;;;;;;;1.93;1.10;;;6.10;99.90;5.90;99066.00;;;;4895890;28;102852;-65
2022/11/17 11:19:43;;;;;;;0.83;0.80;;;6.10;99.90;5.90;99064.00;;;;4890832;28;94898;-65
2022/11/17 11:22:58;;;;;;;2.47;1.40;;;6.00;99.90;5.90;99061.00;;;;4892462;28;118586;-66
2022/11/17 11:25:48;;;;;;;3.17;1.00;;;6.10;99.90;5.90;99057.00;;;;4887990;28;93726;-66
2022/11/17 11:28:35;;;;;;;2.10;1.27;;;6.10;99.90;5.90;99052.00;;;;4892168;28;96177;-65
2022/11/17 11:31:38;;;;;;;0.87;0.77;;;6.10;99.90;5.90;99056.00;;;;4893553;28;93650;-66
2022/11/17 11:34:33;;;;;;;1.63;1.33;;;6.10;99.90;5.90;99054.00;;;;4893523;28;107652;-65
2022/11/17 11:37:14;;;;;;;1.20;0.87;;;6.10;99.90;6.00;99055.00;;;;4887268;28;114771;-66
2022/11/17 11:40:13;;;;;;;1.47;1.33;;;6.50;99.90;5.90;99047.00;;;;4895208;28;93009;-65
2022/11/17 11:43:04;;;;;;;1.13;1.03;;;6.10;99.90;5.90;99054.00;;;;4890804;28;92998;-66
2022/11/17 11:45:52;;;;;;;1.33;0.83;;;6.70;99.90;5.90;99041.00;;;;4891080;28;93177;-65
2022/11/17 11:48:25;;;;;;;2.40;1.30;;;6.10;99.90;6.00;99043.00;;;;4895219;28;115340;-65
2022/11/17 11:50:58;;;;;;;1.57;0.87;;;6.10;99.90;6.00;99054.00;;;;4895854;28;103653;-65
2022/11/17 11:53:41;;;;;;;1.47;1.00;;;6.10;99.90;6.00;99057.00;;;;4891059;28;103095;-66
2022/11/17 11:56:19;;;;;;;2.20;0.90;;;6.10;99.90;6.00;99053.00;;;;4889817;28;92784;-65